Aeroporto :
LOGIN :

Iscrizione | Disclaimer

   EN    FR    IT 

 










Sommario :    VFR   VFR Marginale   IFR   IFR Intensivo   IFR Molto Intensivo
Visibilità : 
Base nubi : 
>= 8 km
>= 3000ft
5 / 8 km
1000 / 3000 ft
1500m / 5 km
500 / 1000 ft
800 / 1500m
200 / 500 ft
< 800m
< 200 ft
Simboli :   Temporali  Nebbia  Neve Forte  Precipitazioni Forti  Vento > 20 kt
SIGMETs :   Varie  Temporali  Ghiacco  Turbolenza  Onda orograficha  Ceneri Vulcaniche






- Altitudine del aeroporto : 602 ft
- Codice IATA : NVS


LFQG - Nevers

ULTIMO METAR :
  • 031400Z AUTO 24007KT 200V280 CAVOK 23/11 Q1021

METARs OBSOLETI :
  • 031330Z AUTO 25007KT 220V300 CAVOK 22/10 Q1021
  • 031300Z AUTO 28006KT 240V300 CAVOK 21/10 Q1021
  • 031230Z AUTO 29006KT 240V340 9999 FEW048 SCT066 BKN082 21/11 Q1022
  • 031200Z AUTO 29006KT 210V340 CAVOK 22/11 Q1022
  • 031130Z AUTO 28005KT 230V330 9999 FEW047 OVC082 21/11 Q1022

TAF N/A



MetMap, La meteo Aeronautica in un colpo d'occhio ! - Copyright ORBIFLY Dicembre 2007 - Disclaimer

ORBIFLY MET'MAP TEAM :

Programmazione e sviluppo : Alexandra Zaïnal
Concezione : Baudouin d'Aumeries
Aiuto per la programmazione : Marc-Olivier Méhu
Supporto tecnico e logistico : Manuel Goepfert
Aiuto per la traduzione : Arnaldo La Scala

Contatto : metmap@orbifly.com




FONTI E CREDITI :

   NOAA